Search for airport 
image banner adimage banner adimage banner ad
image banner ad

27CL - Sopwith Farm

Located in Pleasant Grove, United States

ICAO - 27CL, IATA -

Data provided by Airmate  

General information

Coordinates: N38°44'50" W121°34'22"
Elevation is 20 feet MSL.
Magnetic variation is 16° East
View others Airports in California

Operational data

Special qualification required
Current time UTC:
Current local time:
Weather at : KSMF - Sacramento Intl ( 6 km )
METAR: KSMF 141153Z 16006KT 10SM CLR 17/15 A2996 RMK AO2 SLP146 T01720150 10211 20172 53006
TAF: KSMF 141206Z 1412/1512 16009KT P6SM SKC TEMPO 1413/1417 BKN012 FM142000 19014G20KT P6SM FEW250 FM150600 16013KT P6SM SKC
View NOTAMs / SUP AIP / TFR affecting this airport [VIEW]
Communications frequencies: [VIEW]

Runways:

RWY identifierQFULength (ft)Width (ft)SurfaceLDA (ft)
16200060OTHER
34200060OTHER

Airport contact information

Address: Pleasant Grove United States

Satellite view of 27CL